sensor_id;sensor_type;location;lat;lon;timestamp;temperature;humidity
9919;DHT22;4998;51.024;13.828;2022-10-16T00:01:26;19.70;99.90
9919;DHT22;4998;51.024;13.828;2022-10-16T00:03:53;19.70;99.90
9919;DHT22;4998;51.024;13.828;2022-10-16T00:06:22;19.70;99.90
9919;DHT22;4998;51.024;13.828;2022-10-16T00:08:49;19.70;99.90
9919;DHT22;4998;51.024;13.828;2022-10-16T00:11:18;19.60;99.90
9919;DHT22;4998;51.024;13.828;2022-10-16T00:13:47;19.70;99.90
9919;DHT22;4998;51.024;13.828;2022-10-16T00:16:15;19.60;99.90
9919;DHT22;4998;51.024;13.828;2022-10-16T00:18:43;19.60;99.90
9919;DHT22;4998;51.024;13.828;2022-10-16T00:21:13;19.60;99.90
9919;DHT22;4998;51.024;13.828;2022-10-16T00:23:40;19.60;99.90
9919;DHT22;4998;51.024;13.828;2022-10-16T00:26:10;19.60;99.90
9919;DHT22;4998;51.024;13.828;2022-10-16T00:28:38;19.60;99.90
9919;DHT22;4998;51.024;13.828;2022-10-16T00:31:05;19.60;99.90
9919;DHT22;4998;51.024;13.828;2022-10-16T00:33:33;19.50;99.90
9919;DHT22;4998;51.024;13.828;2022-10-16T00:36:02;19.50;99.90
9919;DHT22;4998;51.024;13.828;2022-10-16T00:38:30;19.50;99.90
9919;DHT22;4998;51.024;13.828;2022-10-16T00:40:57;19.50;99.90
9919;DHT22;4998;51.024;13.828;2022-10-16T00:43:37;19.50;99.90
9919;DHT22;4998;51.024;13.828;2022-10-16T00:46:08;19.50;99.90
9919;DHT22;4998;51.024;13.828;2022-10-16T00:48:37;19.40;99.90
9919;DHT22;4998;51.024;13.828;2022-10-16T00:51:06;19.50;99.90
9919;DHT22;4998;51.024;13.828;2022-10-16T00:53:34;19.50;99.90
9919;DHT22;4998;51.024;13.828;2022-10-16T00:56:02;19.40;99.90
9919;DHT22;4998;51.024;13.828;2022-10-16T00:58:29;19.50;99.90
9919;DHT22;4998;51.024;13.828;2022-10-16T01:00:56;19.40;99.90
9919;DHT22;4998;51.024;13.828;2022-10-16T01:03:26;19.40;99.90
9919;DHT22;4998;51.024;13.828;2022-10-16T01:06:02;19.40;99.90
9919;DHT22;4998;51.024;13.828;2022-10-16T01:08:41;19.40;99.90
9919;DHT22;4998;51.024;13.828;2022-10-16T01:11:19;19.50;99.90
9919;DHT22;4998;51.024;13.828;2022-10-16T01:13:51;19.40;99.90
9919;DHT22;4998;51.024;13.828;2022-10-16T01:16:27;19.40;99.90
9919;DHT22;4998;51.024;13.828;2022-10-16T01:19:02;19.40;99.90
9919;DHT22;4998;51.024;13.828;2022-10-16T01:21:34;19.40;99.90
9919;DHT22;4998;51.024;13.828;2022-10-16T01:24:11;19.50;99.90
9919;DHT22;4998;51.024;13.828;2022-10-16T01:27:00;19.40;99.90
9919;DHT22;4998;51.024;13.828;2022-10-16T01:29:31;19.50;99.90
9919;DHT22;4998;51.024;13.828;2022-10-16T01:32:00;19.50;99.90
9919;DHT22;4998;51.024;13.828;2022-10-16T01:34:33;19.50;99.90
9919;DHT22;4998;51.024;13.828;2022-10-16T01:37:05;19.50;99.90
9919;DHT22;4998;51.024;13.828;2022-10-16T01:39:36;19.50;99.90
9919;DHT22;4998;51.024;13.828;2022-10-16T01:42:11;19.60;99.90
9919;DHT22;4998;51.024;13.828;2022-10-16T01:44:39;19.60;99.90
9919;DHT22;4998;51.024;13.828;2022-10-16T01:47:09;19.60;99.90
9919;DHT22;4998;51.024;13.828;2022-10-16T01:49:39;19.60;99.90
9919;DHT22;4998;51.024;13.828;2022-10-16T01:52:09;19.70;99.90
9919;DHT22;4998;51.024;13.828;2022-10-16T01:54:39;19.70;99.90
9919;DHT22;4998;51.024;13.828;2022-10-16T01:57:10;19.70;99.90
9919;DHT22;4998;51.024;13.828;2022-10-16T01:59:42;19.70;99.90
9919;DHT22;4998;51.024;13.828;2022-10-16T02:02:11;19.70;99.90
9919;DHT22;4998;51.024;13.828;2022-10-16T02:04:43;19.70;99.90
9919;DHT22;4998;51.024;13.828;2022-10-16T02:07:12;19.80;99.90
9919;DHT22;4998;51.024;13.828;2022-10-16T02:09:39;19.80;99.90
9919;DHT22;4998;51.024;13.828;2022-10-16T02:12:12;19.80;99.90
9919;DHT22;4998;51.024;13.828;2022-10-16T02:14:41;19.80;99.90
9919;DHT22;4998;51.024;13.828;2022-10-16T02:17:12;19.80;99.90
9919;DHT22;4998;51.024;13.828;2022-10-16T02:19:39;19.80;99.90
9919;DHT22;4998;51.024;13.828;2022-10-16T02:22:09;19.80;99.90
9919;DHT22;4998;51.024;13.828;2022-10-16T02:24:39;19.90;99.90
9919;DHT22;4998;51.024;13.828;2022-10-16T02:27:13;19.90;99.90
9919;DHT22;4998;51.024;13.828;2022-10-16T02:29:46;19.90;99.90
9919;DHT22;4998;51.024;13.828;2022-10-16T02:32:19;19.90;99.90
9919;DHT22;4998;51.024;13.828;2022-10-16T02:34:48;19.90;99.90
9919;DHT22;4998;51.024;13.828;2022-10-16T02:37:16;19.90;99.90
9919;DHT22;4998;51.024;13.828;2022-10-16T02:39:44;19.90;99.90
9919;DHT22;4998;51.024;13.828;2022-10-16T02:42:13;19.90;99.90
9919;DHT22;4998;51.024;13.828;2022-10-16T02:44:40;19.90;99.90
9919;DHT22;4998;51.024;13.828;2022-10-16T02:47:07;19.90;99.90
9919;DHT22;4998;51.024;13.828;2022-10-16T02:49:34;19.90;99.90
9919;DHT22;4998;51.024;13.828;2022-10-16T02:52:01;19.90;99.90
9919;DHT22;4998;51.024;13.828;2022-10-16T02:54:28;19.90;99.90
9919;DHT22;4998;51.024;13.828;2022-10-16T02:56:55;19.90;99.90
9919;DHT22;4998;51.024;13.828;2022-10-16T02:59:23;19.90;99.90
9919;DHT22;4998;51.024;13.828;2022-10-16T03:01:50;19.90;99.90
9919;DHT22;4998;51.024;13.828;2022-10-16T03:04:17;20.00;99.90
9919;DHT22;4998;51.024;13.828;2022-10-16T03:06:44;19.90;99.90
9919;DHT22;4998;51.024;13.828;2022-10-16T03:09:11;20.00;99.90
9919;DHT22;4998;51.024;13.828;2022-10-16T03:11:38;19.90;99.90
9919;DHT22;4998;51.024;13.828;2022-10-16T03:14:05;20.00;99.90
9919;DHT22;4998;51.024;13.828;2022-10-16T03:16:33;19.90;99.90
9919;DHT22;4998;51.024;13.828;2022-10-16T03:19:00;20.00;99.90
9919;DHT22;4998;51.024;13.828;2022-10-16T03:21:27;19.90;99.90
9919;DHT22;4998;51.024;13.828;2022-10-16T03:23:53;20.00;99.90
9919;DHT22;4998;51.024;13.828;2022-10-16T03:26:20;20.00;99.90
9919;DHT22;4998;51.024;13.828;2022-10-16T03:28:47;20.00;99.90
9919;DHT22;4998;51.024;13.828;2022-10-16T03:31:14;19.90;99.90
9919;DHT22;4998;51.024;13.828;2022-10-16T03:33:42;19.90;99.90
9919;DHT22;4998;51.024;13.828;2022-10-16T03:36:09;19.90;99.90
9919;DHT22;4998;51.024;13.828;2022-10-16T03:38:36;19.90;99.90
9919;DHT22;4998;51.024;13.828;2022-10-16T03:41:03;19.90;99.90
9919;DHT22;4998;51.024;13.828;2022-10-16T03:43:30;19.90;99.90
9919;DHT22;4998;51.024;13.828;2022-10-16T03:45:57;19.90;99.90
9919;DHT22;4998;51.024;13.828;2022-10-16T03:48:24;19.90;99.90
9919;DHT22;4998;51.024;13.828;2022-10-16T03:50:52;19.90;99.90
9919;DHT22;4998;51.024;13.828;2022-10-16T03:53:20;19.90;99.90
9919;DHT22;4998;51.024;13.828;2022-10-16T03:55:47;20.00;99.90
9919;DHT22;4998;51.024;13.828;2022-10-16T03:58:14;20.00;99.90
9919;DHT22;4998;51.024;13.828;2022-10-16T04:00:42;20.00;99.90
9919;DHT22;4998;51.024;13.828;2022-10-16T04:03:09;19.90;99.90
9919;DHT22;4998;51.024;13.828;2022-10-16T04:05:36;20.00;99.90
9919;DHT22;4998;51.024;13.828;2022-10-16T04:08:05;19.90;99.90
9919;DHT22;4998;51.024;13.828;2022-10-16T04:10:32;19.90;99.90
9919;DHT22;4998;51.024;13.828;2022-10-16T04:12:59;19.90;99.90
9919;DHT22;4998;51.024;13.828;2022-10-16T04:15:26;19.90;99.90
9919;DHT22;4998;51.024;13.828;2022-10-16T04:17:53;19.90;99.90
9919;DHT22;4998;51.024;13.828;2022-10-16T04:20:20;19.90;99.90
9919;DHT22;4998;51.024;13.828;2022-10-16T04:22:47;19.90;99.90
9919;DHT22;4998;51.024;13.828;2022-10-16T04:25:15;19.90;99.90
9919;DHT22;4998;51.024;13.828;2022-10-16T04:27:42;19.90;99.90
9919;DHT22;4998;51.024;13.828;2022-10-16T04:30:09;19.90;99.90
9919;DHT22;4998;51.024;13.828;2022-10-16T04:32:36;19.90;99.90
9919;DHT22;4998;51.024;13.828;2022-10-16T04:35:03;19.90;99.90
9919;DHT22;4998;51.024;13.828;2022-10-16T04:37:30;19.90;99.90
9919;DHT22;4998;51.024;13.828;2022-10-16T04:39:57;19.90;99.90
9919;DHT22;4998;51.024;13.828;2022-10-16T04:42:25;20.00;99.90
9919;DHT22;4998;51.024;13.828;2022-10-16T04:44:52;19.90;99.90
9919;DHT22;4998;51.024;13.828;2022-10-16T04:47:19;19.90;99.90
9919;DHT22;4998;51.024;13.828;2022-10-16T04:49:46;19.90;99.90
9919;DHT22;4998;51.024;13.828;2022-10-16T04:52:13;19.90;99.90
9919;DHT22;4998;51.024;13.828;2022-10-16T04:54:40;19.90;99.90
9919;DHT22;4998;51.024;13.828;2022-10-16T04:57:07;19.80;99.90
9919;DHT22;4998;51.024;13.828;2022-10-16T04:59:35;19.90;99.90
9919;DHT22;4998;51.024;13.828;2022-10-16T05:02:02;19.80;99.90
9919;DHT22;4998;51.024;13.828;2022-10-16T05:04:29;19.80;99.90
9919;DHT22;4998;51.024;13.828;2022-10-16T05:06:56;19.80;99.90
9919;DHT22;4998;51.024;13.828;2022-10-16T05:09:23;19.80;99.90
9919;DHT22;4998;51.024;13.828;2022-10-16T05:11:50;19.80;99.90
9919;DHT22;4998;51.024;13.828;2022-10-16T05:14:17;19.80;99.90
9919;DHT22;4998;51.024;13.828;2022-10-16T05:16:45;19.80;99.90
9919;DHT22;4998;51.024;13.828;2022-10-16T05:19:13;19.80;99.90
9919;DHT22;4998;51.024;13.828;2022-10-16T05:21:40;19.80;99.90
9919;DHT22;4998;51.024;13.828;2022-10-16T05:24:07;19.80;99.90
9919;DHT22;4998;51.024;13.828;2022-10-16T05:26:34;19.80;99.90
9919;DHT22;4998;51.024;13.828;2022-10-16T05:29:01;19.80;99.90
9919;DHT22;4998;51.024;13.828;2022-10-16T05:31:28;19.80;99.90
9919;DHT22;4998;51.024;13.828;2022-10-16T05:33:59;19.80;99.90
9919;DHT22;4998;51.024;13.828;2022-10-16T05:36:26;19.80;99.90
9919;DHT22;4998;51.024;13.828;2022-10-16T05:38:53;19.80;99.90
9919;DHT22;4998;51.024;13.828;2022-10-16T05:41:20;19.80;99.90
9919;DHT22;4998;51.024;13.828;2022-10-16T05:43:49;19.80;99.90
9919;DHT22;4998;51.024;13.828;2022-10-16T05:46:18;19.80;99.90
9919;DHT22;4998;51.024;13.828;2022-10-16T05:48:45;19.80;99.90
9919;DHT22;4998;51.024;13.828;2022-10-16T05:51:14;19.80;99.90
9919;DHT22;4998;51.024;13.828;2022-10-16T05:53:41;19.80;99.90
9919;DHT22;4998;51.024;13.828;2022-10-16T05:56:10;19.90;99.90
9919;DHT22;4998;51.024;13.828;2022-10-16T05:58:38;19.90;99.90
9919;DHT22;4998;51.024;13.828;2022-10-16T06:01:08;19.90;99.90
9919;DHT22;4998;51.024;13.828;2022-10-16T06:03:36;19.90;99.90
9919;DHT22;4998;51.024;13.828;2022-10-16T06:06:07;19.90;99.90
9919;DHT22;4998;51.024;13.828;2022-10-16T06:08:36;19.80;99.90
9919;DHT22;4998;51.024;13.828;2022-10-16T06:11:04;19.80;99.90
9919;DHT22;4998;51.024;13.828;2022-10-16T06:13:31;19.90;99.90
9919;DHT22;4998;51.024;13.828;2022-10-16T06:15:59;19.90;99.90
9919;DHT22;4998;51.024;13.828;2022-10-16T06:18:27;19.90;99.90
9919;DHT22;4998;51.024;13.828;2022-10-16T06:20:55;19.90;99.90
9919;DHT22;4998;51.024;13.828;2022-10-16T06:23:22;19.90;99.90
9919;DHT22;4998;51.024;13.828;2022-10-16T06:25:50;19.90;99.90
9919;DHT22;4998;51.024;13.828;2022-10-16T06:28:17;19.90;99.90
9919;DHT22;4998;51.024;13.828;2022-10-16T06:30:44;20.00;99.90
9919;DHT22;4998;51.024;13.828;2022-10-16T06:33:11;20.00;99.90
9919;DHT22;4998;51.024;13.828;2022-10-16T06:35:38;20.00;99.90
9919;DHT22;4998;51.024;13.828;2022-10-16T06:38:05;20.00;99.90
9919;DHT22;4998;51.024;13.828;2022-10-16T06:40:32;20.10;99.90
9919;DHT22;4998;51.024;13.828;2022-10-16T06:43:00;20.10;99.90
9919;DHT22;4998;51.024;13.828;2022-10-16T06:45:27;20.10;99.90
9919;DHT22;4998;51.024;13.828;2022-10-16T06:47:53;20.20;99.90
9919;DHT22;4998;51.024;13.828;2022-10-16T06:50:20;20.20;99.90
9919;DHT22;4998;51.024;13.828;2022-10-16T06:52:47;20.20;99.90
9919;DHT22;4998;51.024;13.828;2022-10-16T06:55:14;20.20;99.90
9919;DHT22;4998;51.024;13.828;2022-10-16T06:57:42;20.20;99.90
9919;DHT22;4998;51.024;13.828;2022-10-16T07:00:11;20.30;99.90
9919;DHT22;4998;51.024;13.828;2022-10-16T07:02:38;20.30;99.90
9919;DHT22;4998;51.024;13.828;2022-10-16T07:05:05;20.40;99.90
9919;DHT22;4998;51.024;13.828;2022-10-16T07:07:32;20.40;99.90
9919;DHT22;4998;51.024;13.828;2022-10-16T07:09:59;20.40;99.90
9919;DHT22;4998;51.024;13.828;2022-10-16T07:12:26;20.50;99.90
9919;DHT22;4998;51.024;13.828;2022-10-16T07:14:53;20.50;99.90
9919;DHT22;4998;51.024;13.828;2022-10-16T07:17:22;20.50;99.90
9919;DHT22;4998;51.024;13.828;2022-10-16T07:19:49;20.60;99.90
9919;DHT22;4998;51.024;13.828;2022-10-16T07:22:18;20.60;99.90
9919;DHT22;4998;51.024;13.828;2022-10-16T07:24:45;20.60;99.90
9919;DHT22;4998;51.024;13.828;2022-10-16T07:27:12;20.70;99.90
9919;DHT22;4998;51.024;13.828;2022-10-16T07:29:39;20.70;99.90
9919;DHT22;4998;51.024;13.828;2022-10-16T07:32:06;20.70;99.90
9919;DHT22;4998;51.024;13.828;2022-10-16T07:34:34;20.70;99.90
9919;DHT22;4998;51.024;13.828;2022-10-16T07:37:01;20.80;99.90
9919;DHT22;4998;51.024;13.828;2022-10-16T07:39:28;20.80;99.90
9919;DHT22;4998;51.024;13.828;2022-10-16T07:41:55;20.80;99.90
9919;DHT22;4998;51.024;13.828;2022-10-16T07:44:22;20.80;99.90
9919;DHT22;4998;51.024;13.828;2022-10-16T07:46:49;20.90;99.90
9919;DHT22;4998;51.024;13.828;2022-10-16T07:49:15;20.90;99.90
9919;DHT22;4998;51.024;13.828;2022-10-16T07:51:44;20.90;99.90
9919;DHT22;4998;51.024;13.828;2022-10-16T07:54:11;20.90;99.90
9919;DHT22;4998;51.024;13.828;2022-10-16T07:56:37;21.00;99.90
9919;DHT22;4998;51.024;13.828;2022-10-16T07:59:04;21.00;99.90
9919;DHT22;4998;51.024;13.828;2022-10-16T08:01:31;21.00;99.90
9919;DHT22;4998;51.024;13.828;2022-10-16T08:03:58;21.00;99.90
9919;DHT22;4998;51.024;13.828;2022-10-16T08:06:25;21.10;99.90
9919;DHT22;4998;51.024;13.828;2022-10-16T08:08:53;21.10;99.90
9919;DHT22;4998;51.024;13.828;2022-10-16T08:11:20;21.20;99.90
9919;DHT22;4998;51.024;13.828;2022-10-16T08:13:48;21.20;99.90
9919;DHT22;4998;51.024;13.828;2022-10-16T08:16:15;21.30;99.90
9919;DHT22;4998;51.024;13.828;2022-10-16T08:18:42;21.30;99.90
9919;DHT22;4998;51.024;13.828;2022-10-16T08:21:13;21.30;99.90
9919;DHT22;4998;51.024;13.828;2022-10-16T08:23:40;21.40;99.90
9919;DHT22;4998;51.024;13.828;2022-10-16T08:26:08;21.50;99.90
9919;DHT22;4998;51.024;13.828;2022-10-16T08:28:36;21.50;99.90
9919;DHT22;4998;51.024;13.828;2022-10-16T08:31:07;21.50;99.90
9919;DHT22;4998;51.024;13.828;2022-10-16T08:33:34;21.60;99.90
9919;DHT22;4998;51.024;13.828;2022-10-16T08:36:02;21.60;99.90
9919;DHT22;4998;51.024;13.828;2022-10-16T08:38:29;21.60;99.90
9919;DHT22;4998;51.024;13.828;2022-10-16T08:41:21;21.70;99.90
9919;DHT22;4998;51.024;13.828;2022-10-16T08:46:54;21.80;99.90
9919;DHT22;4998;51.024;13.828;2022-10-16T08:49:27;21.90;99.90
9919;DHT22;4998;51.024;13.828;2022-10-16T08:51:55;21.90;99.90
9919;DHT22;4998;51.024;13.828;2022-10-16T08:54:27;22.00;99.90
9919;DHT22;4998;51.024;13.828;2022-10-16T08:56:56;22.00;99.90
9919;DHT22;4998;51.024;13.828;2022-10-16T08:59:23;22.10;99.90
9919;DHT22;4998;51.024;13.828;2022-10-16T09:01:52;22.10;99.90
9919;DHT22;4998;51.024;13.828;2022-10-16T09:04:53;22.20;99.90
9919;DHT22;4998;51.024;13.828;2022-10-16T09:07:30;22.20;99.80
9919;DHT22;4998;51.024;13.828;2022-10-16T09:10:11;22.30;99.70
9919;DHT22;4998;51.024;13.828;2022-10-16T09:12:48;22.30;99.60
9919;DHT22;4998;51.024;13.828;2022-10-16T09:15:25;22.30;99.40
9919;DHT22;4998;51.024;13.828;2022-10-16T09:18:00;22.30;99.40
9919;DHT22;4998;51.024;13.828;2022-10-16T09:20:39;22.30;99.40
9919;DHT22;4998;51.024;13.828;2022-10-16T09:23:17;22.30;99.40
9919;DHT22;4998;51.024;13.828;2022-10-16T09:25:46;22.30;99.40
9919;DHT22;4998;51.024;13.828;2022-10-16T09:28:15;22.40;99.40
9919;DHT22;4998;51.024;13.828;2022-10-16T09:30:43;22.40;99.30
9919;DHT22;4998;51.024;13.828;2022-10-16T09:33:11;22.40;99.30
9919;DHT22;4998;51.024;13.828;2022-10-16T09:35:40;22.40;99.30
9919;DHT22;4998;51.024;13.828;2022-10-16T09:38:08;22.50;99.30
9919;DHT22;4998;51.024;13.828;2022-10-16T09:40:37;22.50;99.70
9919;DHT22;4998;51.024;13.828;2022-10-16T09:43:21;22.50;99.20
9919;DHT22;4998;51.024;13.828;2022-10-16T09:45:59;22.60;99.10
9919;DHT22;4998;51.024;13.828;2022-10-16T09:48:31;22.60;99.00
9919;DHT22;4998;51.024;13.828;2022-10-16T09:51:02;22.60;99.00
9919;DHT22;4998;51.024;13.828;2022-10-16T09:53:40;22.70;99.00
9919;DHT22;4998;51.024;13.828;2022-10-16T09:56:10;22.70;98.90
9919;DHT22;4998;51.024;13.828;2022-10-16T09:58:50;22.80;98.80
9919;DHT22;4998;51.024;13.828;2022-10-16T10:01:19;22.80;98.80
9919;DHT22;4998;51.024;13.828;2022-10-16T10:03:46;22.80;98.80
9919;DHT22;4998;51.024;13.828;2022-10-16T10:06:18;22.90;98.80
9919;DHT22;4998;51.024;13.828;2022-10-16T10:08:55;22.90;98.70
9919;DHT22;4998;51.024;13.828;2022-10-16T10:11:42;23.00;99.00
9919;DHT22;4998;51.024;13.828;2022-10-16T10:14:18;23.10;98.70
9919;DHT22;4998;51.024;13.828;2022-10-16T10:16:46;23.10;98.40
9919;DHT22;4998;51.024;13.828;2022-10-16T10:19:15;23.20;98.30
9919;DHT22;4998;51.024;13.828;2022-10-16T10:21:42;23.30;98.10
9919;DHT22;4998;51.024;13.828;2022-10-16T10:24:13;23.40;98.00
9919;DHT22;4998;51.024;13.828;2022-10-16T10:26:46;23.40;97.80
9919;DHT22;4998;51.024;13.828;2022-10-16T10:29:23;23.40;97.60
9919;DHT22;4998;51.024;13.828;2022-10-16T10:31:56;23.50;97.60
9919;DHT22;4998;51.024;13.828;2022-10-16T10:34:43;23.50;97.50
9919;DHT22;4998;51.024;13.828;2022-10-16T10:37:23;23.60;97.50
9919;DHT22;4998;51.024;13.828;2022-10-16T10:40:00;23.60;97.30
9919;DHT22;4998;51.024;13.828;2022-10-16T10:42:33;23.60;97.10
9919;DHT22;4998;51.024;13.828;2022-10-16T10:45:16;23.70;97.00
9919;DHT22;4998;51.024;13.828;2022-10-16T10:47:52;23.70;97.00
9919;DHT22;4998;51.024;13.828;2022-10-16T10:50:25;23.70;96.80
9919;DHT22;4998;51.024;13.828;2022-10-16T10:53:05;23.80;96.70
9919;DHT22;4998;51.024;13.828;2022-10-16T10:55:43;23.80;96.80
9919;DHT22;4998;51.024;13.828;2022-10-16T10:58:27;23.90;96.80
9919;DHT22;4998;51.024;13.828;2022-10-16T11:01:06;24.00;96.90
9919;DHT22;4998;51.024;13.828;2022-10-16T11:03:51;24.00;96.80
9919;DHT22;4998;51.024;13.828;2022-10-16T11:06:26;24.10;96.70
9919;DHT22;4998;51.024;13.828;2022-10-16T11:08:59;24.10;96.80
9919;DHT22;4998;51.024;13.828;2022-10-16T11:11:30;24.30;96.70
9919;DHT22;4998;51.024;13.828;2022-10-16T11:14:01;24.30;96.50
9919;DHT22;4998;51.024;13.828;2022-10-16T11:16:33;24.40;96.10
9919;DHT22;4998;51.024;13.828;2022-10-16T11:19:11;24.50;95.80
9919;DHT22;4998;51.024;13.828;2022-10-16T11:21:43;24.50;95.70
9919;DHT22;4998;51.024;13.828;2022-10-16T11:24:18;24.60;95.50
9919;DHT22;4998;51.024;13.828;2022-10-16T11:26:46;24.60;95.10
9919;DHT22;4998;51.024;13.828;2022-10-16T11:29:17;24.70;95.00
9919;DHT22;4998;51.024;13.828;2022-10-16T11:31:50;24.70;94.60
9919;DHT22;4998;51.024;13.828;2022-10-16T11:34:24;24.80;94.70
9919;DHT22;4998;51.024;13.828;2022-10-16T11:36:57;24.80;94.50
9919;DHT22;4998;51.024;13.828;2022-10-16T11:39:27;24.90;94.30
9919;DHT22;4998;51.024;13.828;2022-10-16T11:41:57;24.90;93.90
9919;DHT22;4998;51.024;13.828;2022-10-16T11:44:36;25.00;93.70
9919;DHT22;4998;51.024;13.828;2022-10-16T11:47:14;25.00;93.40
9919;DHT22;4998;51.024;13.828;2022-10-16T11:49:46;25.00;93.00
9919;DHT22;4998;51.024;13.828;2022-10-16T11:52:18;25.00;92.60
9919;DHT22;4998;51.024;13.828;2022-10-16T11:54:51;25.10;92.40
9919;DHT22;4998;51.024;13.828;2022-10-16T11:57:23;25.10;92.30
9919;DHT22;4998;51.024;13.828;2022-10-16T11:59:53;25.10;92.20
9919;DHT22;4998;51.024;13.828;2022-10-16T12:02:45;25.20;92.20
9919;DHT22;4998;51.024;13.828;2022-10-16T12:05:24;25.20;92.10
9919;DHT22;4998;51.024;13.828;2022-10-16T12:08:01;25.30;91.70
9919;DHT22;4998;51.024;13.828;2022-10-16T12:10:30;25.30;91.50
9919;DHT22;4998;51.024;13.828;2022-10-16T12:13:02;25.40;91.40
9919;DHT22;4998;51.024;13.828;2022-10-16T12:15:31;25.40;91.00
9919;DHT22;4998;51.024;13.828;2022-10-16T12:18:00;25.50;90.80
9919;DHT22;4998;51.024;13.828;2022-10-16T12:20:29;25.50;90.40
9919;DHT22;4998;51.024;13.828;2022-10-16T12:22:59;25.60;90.00
9919;DHT22;4998;51.024;13.828;2022-10-16T12:25:29;25.60;90.10
9919;DHT22;4998;51.024;13.828;2022-10-16T12:28:02;25.70;90.00
9919;DHT22;4998;51.024;13.828;2022-10-16T12:30:32;25.70;88.60
9919;DHT22;4998;51.024;13.828;2022-10-16T12:33:02;25.80;88.00
9919;DHT22;4998;51.024;13.828;2022-10-16T12:35:32;25.80;87.70
9919;DHT22;4998;51.024;13.828;2022-10-16T12:38:08;25.80;86.90
9919;DHT22;4998;51.024;13.828;2022-10-16T12:40:39;25.90;86.30
9919;DHT22;4998;51.024;13.828;2022-10-16T12:43:25;25.90;85.90
9919;DHT22;4998;51.024;13.828;2022-10-16T12:46:00;25.90;86.10
9919;DHT22;4998;51.024;13.828;2022-10-16T12:48:29;25.90;84.50
9919;DHT22;4998;51.024;13.828;2022-10-16T12:50:56;25.90;84.20
9919;DHT22;4998;51.024;13.828;2022-10-16T12:53:24;25.90;84.50
9919;DHT22;4998;51.024;13.828;2022-10-16T12:55:58;25.80;84.30
9919;DHT22;4998;51.024;13.828;2022-10-16T12:58:39;25.80;83.70
9919;DHT22;4998;51.024;13.828;2022-10-16T13:01:19;25.90;84.00
9919;DHT22;4998;51.024;13.828;2022-10-16T13:04:02;25.90;83.80
9919;DHT22;4998;51.024;13.828;2022-10-16T13:06:37;25.90;83.10
9919;DHT22;4998;51.024;13.828;2022-10-16T13:09:28;25.90;82.70
9919;DHT22;4998;51.024;13.828;2022-10-16T13:12:07;25.90;82.60
9919;DHT22;4998;51.024;13.828;2022-10-16T13:14:54;26.00;83.00
9919;DHT22;4998;51.024;13.828;2022-10-16T13:17:30;25.90;82.40
9919;DHT22;4998;51.024;13.828;2022-10-16T13:20:10;26.00;81.50
9919;DHT22;4998;51.024;13.828;2022-10-16T13:22:43;25.90;80.70
9919;DHT22;4998;51.024;13.828;2022-10-16T13:25:23;25.90;80.70
9919;DHT22;4998;51.024;13.828;2022-10-16T13:27:56;25.90;80.70
9919;DHT22;4998;51.024;13.828;2022-10-16T13:30:25;25.90;80.40
9919;DHT22;4998;51.024;13.828;2022-10-16T13:32:59;25.90;80.50
9919;DHT22;4998;51.024;13.828;2022-10-16T13:35:29;25.90;80.00
9919;DHT22;4998;51.024;13.828;2022-10-16T13:38:14;25.90;80.40
9919;DHT22;4998;51.024;13.828;2022-10-16T13:40:49;25.90;80.80
9919;DHT22;4998;51.024;13.828;2022-10-16T13:43:17;25.90;80.40
9919;DHT22;4998;51.024;13.828;2022-10-16T13:45:53;25.90;80.60
9919;DHT22;4998;51.024;13.828;2022-10-16T13:48:20;26.00;80.10
9919;DHT22;4998;51.024;13.828;2022-10-16T13:50:58;26.00;80.10
9919;DHT22;4998;51.024;13.828;2022-10-16T13:53:25;26.00;79.50
9919;DHT22;4998;51.024;13.828;2022-10-16T13:55:52;26.00;79.80
9919;DHT22;4998;51.024;13.828;2022-10-16T13:58:19;26.00;79.40
9919;DHT22;4998;51.024;13.828;2022-10-16T14:00:54;26.00;79.50
9919;DHT22;4998;51.024;13.828;2022-10-16T14:03:22;25.90;78.90
9919;DHT22;4998;51.024;13.828;2022-10-16T14:05:52;25.90;79.30
9919;DHT22;4998;51.024;13.828;2022-10-16T14:08:20;25.90;78.50
9919;DHT22;4998;51.024;13.828;2022-10-16T14:10:49;25.90;78.80
9919;DHT22;4998;51.024;13.828;2022-10-16T14:13:18;25.80;78.70
9919;DHT22;4998;51.024;13.828;2022-10-16T14:15:47;25.80;79.30
9919;DHT22;4998;51.024;13.828;2022-10-16T14:18:19;25.70;79.80
9919;DHT22;4998;51.024;13.828;2022-10-16T14:20:47;25.70;79.90
9919;DHT22;4998;51.024;13.828;2022-10-16T14:23:23;25.60;80.10
9919;DHT22;4998;51.024;13.828;2022-10-16T14:26:06;25.60;80.20
9919;DHT22;4998;51.024;13.828;2022-10-16T14:28:33;25.60;80.60
9919;DHT22;4998;51.024;13.828;2022-10-16T14:31:01;25.50;81.00
9919;DHT22;4998;51.024;13.828;2022-10-16T14:33:32;25.50;81.10
9919;DHT22;4998;51.024;13.828;2022-10-16T14:36:05;25.50;81.30
9919;DHT22;4998;51.024;13.828;2022-10-16T14:38:33;25.40;81.30
9919;DHT22;4998;51.024;13.828;2022-10-16T14:41:01;25.40;81.60
9919;DHT22;4998;51.024;13.828;2022-10-16T14:43:32;25.40;81.80
9919;DHT22;4998;51.024;13.828;2022-10-16T14:46:02;25.30;81.80
9919;DHT22;4998;51.024;13.828;2022-10-16T14:48:30;25.30;81.90
9919;DHT22;4998;51.024;13.828;2022-10-16T14:50:57;25.30;83.20
9919;DHT22;4998;51.024;13.828;2022-10-16T14:53:24;25.30;82.40
9919;DHT22;4998;51.024;13.828;2022-10-16T14:55:52;25.20;82.50
9919;DHT22;4998;51.024;13.828;2022-10-16T14:58:21;25.20;82.40
9919;DHT22;4998;51.024;13.828;2022-10-16T15:00:48;25.20;82.20
9919;DHT22;4998;51.024;13.828;2022-10-16T15:03:16;25.20;82.30
9919;DHT22;4998;51.024;13.828;2022-10-16T15:05:43;25.20;82.60
9919;DHT22;4998;51.024;13.828;2022-10-16T15:08:10;25.20;82.50
9919;DHT22;4998;51.024;13.828;2022-10-16T15:10:40;25.20;82.80
9919;DHT22;4998;51.024;13.828;2022-10-16T15:13:11;25.20;82.90
9919;DHT22;4998;51.024;13.828;2022-10-16T15:15:42;25.10;82.70
9919;DHT22;4998;51.024;13.828;2022-10-16T15:18:10;25.10;83.00
9919;DHT22;4998;51.024;13.828;2022-10-16T15:20:38;25.10;83.00
9919;DHT22;4998;51.024;13.828;2022-10-16T15:23:10;25.10;83.10
9919;DHT22;4998;51.024;13.828;2022-10-16T15:25:42;25.00;83.10
9919;DHT22;4998;51.024;13.828;2022-10-16T15:28:12;25.00;83.40
9919;DHT22;4998;51.024;13.828;2022-10-16T15:30:40;25.00;83.60
9919;DHT22;4998;51.024;13.828;2022-10-16T15:33:12;25.00;84.70
9919;DHT22;4998;51.024;13.828;2022-10-16T15:35:39;24.90;83.70
9919;DHT22;4998;51.024;13.828;2022-10-16T15:38:08;24.90;83.90
9919;DHT22;4998;51.024;13.828;2022-10-16T15:40:36;24.90;84.00
9919;DHT22;4998;51.024;13.828;2022-10-16T15:43:03;24.80;84.10
9919;DHT22;4998;51.024;13.828;2022-10-16T15:45:31;24.80;84.30
9919;DHT22;4998;51.024;13.828;2022-10-16T15:47:58;24.80;84.40
9919;DHT22;4998;51.024;13.828;2022-10-16T15:50:25;24.80;84.60
9919;DHT22;4998;51.024;13.828;2022-10-16T15:52:52;24.80;84.80
9919;DHT22;4998;51.024;13.828;2022-10-16T15:55:19;24.70;84.90
9919;DHT22;4998;51.024;13.828;2022-10-16T15:57:46;24.70;85.20
9919;DHT22;4998;51.024;13.828;2022-10-16T16:00:15;24.60;85.30
9919;DHT22;4998;51.024;13.828;2022-10-16T16:02:49;24.60;85.70
9919;DHT22;4998;51.024;13.828;2022-10-16T16:05:17;24.60;86.20
9919;DHT22;4998;51.024;13.828;2022-10-16T16:07:44;24.50;86.10